Wetterdaten: aktuell Freitag, 19.10.2018 19:10
Datum Zeit Temp. A. Feuchte A. Luftdruck Regen Wind Sonnenschein ET UV Solar Taupunkt Windchill Windben
19.10.2018 19:10 12,7 C 79 % 1021,9 hPa 0,0 l/m 0,0 km/h (0 Bft) 0 min 0,000 mm 0,0 UV-I 0 W/m 9,2 C 12,7 C 0,0 km/h (0 Bft)
19.10.2018 18:10 15,7 C 73 % 1021,1 hPa 0,0 l/m 0,0 km/h (0 Bft) 24 min 0,026 mm 0,0 UV-I 18 W/m 10,9 C 15,7 C 0,0 km/h (0 Bft)
19.10.2018 17:10 16,4 C 71 % 1020,8 hPa 0,0 l/m 0,5 km/h (0 Bft) 54 min 0,076 mm 0,0 UV-I 57 W/m 11,1 C 16,4 C 1,6 km/h (1 Bft)
19.10.2018 16:10 17,6 C 69 % 1020,8 hPa 0,0 l/m 1,1 km/h (1 Bft) 60 min 0,101 mm 0,0 UV-I 223 W/m 11,8 C 17,6 C 4,8 km/h (1 Bft)
19.10.2018 15:10 17,7 C 68 % 1020,8 hPa 0,0 l/m 4,6 km/h (1 Bft) 60 min 0,001 mm 0,6 UV-I 148 W/m 11,7 C 17,7 C 8,0 km/h (2 Bft)
19.10.2018 14:10 17,4 C 69 % 1021,0 hPa 0,0 l/m 2,5 km/h (1 Bft) 60 min 0,254 mm 1,1 UV-I 390 W/m 11,7 C 17,4 C 6,4 km/h (2 Bft)
19.10.2018 13:10 16,6 C 72 % 1021,4 hPa 0,0 l/m 8,6 km/h (2 Bft) 60 min 0,203 mm 1,3 UV-I 468 W/m 11,5 C 15,5 C 14,5 km/h (3 Bft)
19.10.2018 12:10 12,8 C 85 % 1021,8 hPa 0,0 l/m 3,8 km/h (1 Bft) 60 min 0,076 mm 1,0 UV-I 300 W/m 10,3 C 12,8 C 8,0 km/h (2 Bft)
19.10.2018 11:10 10,6 C 89 % 1021,8 hPa 0,0 l/m 4,4 km/h (1 Bft) 60 min 0,051 mm 0,0 UV-I 103 W/m 8,9 C 10,6 C 6,4 km/h (2 Bft)
19.10.2018 10:10 9,6 C 88 % 1021,5 hPa 0,0 l/m 0,2 km/h (0 Bft) 60 min 0,051 mm 0,0 UV-I 109 W/m 7,7 C 9,6 C 1,6 km/h (1 Bft)
19.10.2018 09:10 5,7 C 90 % 1021,4 hPa 0,0 l/m 0,0 km/h (0 Bft) 28 min 0,025 mm 0,0 UV-I 90 W/m 4,2 C 5,7 C 0,0 km/h (0 Bft)
19.10.2018 08:10 4,2 C 90 % 1020,7 hPa 0,0 l/m 0,0 km/h (0 Bft) 0 min 0,000 mm 0,0 UV-I 14 W/m 2,7 C 4,2 C 0,0 km/h (0 Bft)
19.10.2018 07:10 4,4 C 90 % 1020,2 hPa 0,0 l/m 0,0 km/h (0 Bft) 0 min 0,000 mm 0,0 UV-I 0 W/m 2,9 C 4,4 C 0,0 km/h (0 Bft)
19.10.2018 06:12 4,8 C 90 % 1019,9 hPa 0,0 l/m 0,0 km/h (0 Bft) 0 min 0,000 mm 0,0 UV-I 0 W/m 3,3 C 4,8 C 0,0 km/h (0 Bft)
19.10.2018 05:12 5,4 C 89 % 1019,9 hPa 0,0 l/m 0,0 km/h (0 Bft) 0 min 0,000 mm 0,0 UV-I 0 W/m 3,7 C 5,4 C 1,6 km/h (1 Bft)
19.10.2018 04:12 5,7 C 89 % 1019,9 hPa 0,0 l/m 0,0 km/h (0 Bft) 0 min 0,000 mm 0,0 UV-I 0 W/m 4,0 C 5,7 C 0,0 km/h (0 Bft)
19.10.2018 03:12 6,5 C 89 % 1019,9 hPa 0,0 l/m 0,0 km/h (0 Bft) 0 min 0,000 mm 0,0 UV-I 0 W/m 4,8 C 6,5 C 0,0 km/h (0 Bft)
19.10.2018 02:12 7,6 C 87 % 1020,1 hPa 0,0 l/m 0,0 km/h (0 Bft) 0 min 0,000 mm 0,0 UV-I 0 W/m 5,6 C 7,6 C 0,0 km/h (0 Bft)
19.10.2018 01:12 9,3 C 85 % 1019,9 hPa 0,0 l/m 0,1 km/h (0 Bft) 0 min 0,000 mm 0,0 UV-I 0 W/m 6,9 C 9,3 C 1,6 km/h (1 Bft)
19.10.2018 00:12 11,4 C 82 % 1020,3 hPa 0,0 l/m 0,4 km/h (0 Bft) 0 min 0,000 mm 0,0 UV-I 0 W/m 8,4 C 11,4 C 1,6 km/h (1 Bft)
18.10.2018 23:12 12,7 C 80 % 1020,1 hPa 0,0 l/m 0,0 km/h (0 Bft) 0 min 0,025 mm 0,0 UV-I 0 W/m 9,3 C 12,7 C 0,0 km/h (0 Bft)
18.10.2018 22:12 11,3 C 85 % 1020,0 hPa 0,0 l/m 0,2 km/h (0 Bft) 0 min 0,025 mm 0,0 UV-I 0 W/m 8,9 C 11,3 C 1,6 km/h (1 Bft)
18.10.2018 21:12 12,6 C 77 % 1019,9 hPa 0,0 l/m 0,0 km/h (0 Bft) 0 min 0,026 mm 0,0 UV-I 0 W/m 8,7 C 12,6 C 1,6 km/h (1 Bft)
18.10.2018 20:12 14,2 C 73 % 1019,5 hPa 0,0 l/m 0,0 km/h (0 Bft) 0 min 0,025 mm 0,0 UV-I 0 W/m 9,4 C 14,2 C 1,6 km/h (1 Bft)
18.10.2018 20:00 14,4 C 73 % 1019,4 hPa 0,0 l/m 0,6 km/h (0 Bft) 0 min 0,025 mm 0,0 UV-I 0 W/m 9,6 C 14,4 C 4,8 km/h (1 Bft)
_ Min-Zeit 07:24 14:20 20:00 - 20:02 - - - - 07:24 07:24 20:02
Minimum _ 4,2 C 66 % 1019,4 hPa - 0,0 km/h (0 Bft) - - - - 2,7 C 4,2 C 0,0 km/h (0 Bft)
_ Max-Zeit 14:18 08:48 11:22 20:00 13:10 08:44 14:00 12:44 13:08 14:16 14:18 13:10
Maximum _ 18,4 C 91 % 1021,9 hPa 0,0 l/m 8,6 km/h
SO (2 Bft)
2 min 0,254 mm 1,3 UV-I 476 W/m 12,3 C 18,4 C 14,5 km/h
S-SO (3 Bft)
Durchschnitt _ 11,2 C 81 % 1020,5 hPa #0,0 l/m 1,0 km/h (0 Bft) #8:46 h #1,067 mm 0,9 UV-I 179 W/m 7,9 C 11,2 C 2,7 km/h (1 Bft)